Roland, Indiana
Current Conditions -  °F | °C
As of 11:15 PM on Thursday 27 Nov 2014 (Local Time) from KDCY Reporting Station
Scattered Clouds Scattered Clouds  
Wind Chill: 18°   Ceiling: Unl
Heat Index: 24°   Visibility: 10mi
Dew Point: 20°   Wind: 5mph
Humidity: 85%   Direction: 320°NW
Pressure: 30.45"   Gusts: NA
Location:  38.6165°N, 86.6265°W
Report Text: KDCY 280415Z AUTO 32004KT 10SM SCT025 M04/M07 A3045 RMK AO2 T10451066
Loading
Personal Weather Stations






























Interactive Weather Map New forecast layout! Learn more

10-Day Weather Forecast

Advertisements
Track Severe Weather on mobile